createdAt,value
2019-05-10T00:00:15.276Z,0.70
2019-05-10T00:03:03.068Z,0.80
2019-05-10T00:05:50.779Z,0.63
2019-05-10T00:08:37.101Z,0.70
2019-05-10T00:11:07.427Z,0.63
2019-05-10T00:13:40.890Z,0.60
2019-05-10T00:16:09.364Z,0.43
2019-05-10T00:18:37.478Z,0.40
2019-05-10T00:21:06.597Z,0.70
2019-05-10T00:23:35.077Z,0.83
2019-05-10T00:26:03.524Z,0.50
2019-05-10T00:28:32.012Z,0.93
2019-05-10T00:31:00.763Z,1.10
2019-05-10T00:33:29.248Z,0.73
2019-05-10T00:35:58.224Z,0.70
2019-05-10T00:38:26.663Z,0.63
2019-05-10T00:40:55.403Z,0.70
2019-05-10T00:43:23.849Z,0.60
2019-05-10T00:45:52.568Z,0.70
2019-05-10T00:48:20.699Z,0.80
2019-05-10T00:50:48.859Z,0.30
2019-05-10T00:53:17.700Z,0.67
2019-05-10T00:55:46.388Z,0.60
2019-05-10T00:58:14.940Z,0.63
2019-05-10T01:00:43.660Z,0.77
2019-05-10T01:03:12.128Z,0.77
2019-05-10T01:05:40.656Z,0.60
2019-05-10T01:08:09.103Z,0.60
2019-05-10T01:10:37.300Z,0.70
2019-05-10T01:13:09.331Z,0.80
2019-05-10T01:15:38.023Z,0.70
2019-05-10T01:18:06.510Z,0.80
2019-05-10T01:20:35.288Z,0.60
2019-05-10T01:23:03.682Z,0.90
2019-05-10T01:25:35.354Z,0.87
2019-05-10T01:28:02.333Z,0.77
2019-05-10T01:30:31.052Z,0.77
2019-05-10T01:33:00.363Z,0.67
2019-05-10T01:35:29.142Z,0.80
2019-05-10T01:37:57.579Z,1.23
2019-05-10T01:40:26.308Z,0.50
2019-05-10T01:42:54.788Z,0.60
2019-05-10T01:45:23.572Z,0.80
2019-05-10T01:47:52.053Z,1.37
2019-05-10T01:50:20.163Z,0.60
2019-05-10T01:52:48.648Z,0.50
2019-05-10T01:55:17.087Z,0.63
2019-05-10T01:57:45.581Z,0.97
2019-05-10T02:00:15.423Z,0.50
2019-05-10T02:02:43.532Z,0.50
2019-05-10T02:05:14.271Z,0.50
2019-05-10T02:07:42.896Z,0.57
2019-05-10T02:10:12.268Z,0.50
2019-05-10T02:12:41.051Z,0.50
2019-05-10T02:15:11.414Z,0.57
2019-05-10T02:17:40.064Z,0.70
2019-05-10T02:20:09.243Z,0.63
2019-05-10T02:22:37.796Z,0.40
2019-05-10T02:25:08.496Z,0.93
2019-05-10T02:27:37.260Z,0.50
2019-05-10T02:30:08.813Z,1.00
2019-05-10T02:32:37.264Z,0.70
2019-05-10T02:35:07.225Z,1.47
2019-05-10T02:37:35.768Z,0.47
2019-05-10T02:40:06.935Z,0.60
2019-05-10T02:42:35.411Z,0.67
2019-05-10T02:45:08.855Z,0.53
2019-05-10T02:47:37.512Z,0.53
2019-05-10T02:50:07.861Z,0.73
2019-05-10T02:52:36.068Z,0.70
2019-05-10T02:55:06.149Z,0.60
2019-05-10T02:57:36.544Z,0.70
2019-05-10T03:00:07.928Z,0.93
2019-05-10T03:02:37.644Z,0.70
2019-05-10T03:05:08.453Z,0.60
2019-05-10T03:07:39.392Z,0.53
2019-05-10T03:10:11.371Z,0.90
2019-05-10T03:12:41.743Z,0.40
2019-05-10T03:15:12.333Z,0.60
2019-05-10T03:17:42.097Z,0.40
2019-05-10T03:20:12.404Z,0.73
2019-05-10T03:22:43.314Z,0.40
2019-05-10T03:25:14.450Z,0.77
2019-05-10T03:27:44.085Z,0.40
2019-05-10T03:30:13.896Z,1.00
2019-05-10T03:32:43.211Z,0.30
2019-05-10T03:35:12.563Z,0.57
2019-05-10T03:37:41.360Z,0.37
2019-05-10T03:40:10.560Z,0.63
2019-05-10T03:42:39.160Z,0.70
2019-05-10T03:45:08.564Z,0.70
2019-05-10T03:47:37.111Z,0.80
2019-05-10T03:50:08.556Z,1.07
2019-05-10T03:52:37.080Z,1.03
2019-05-10T03:55:07.578Z,0.73
2019-05-10T03:57:35.681Z,1.00
2019-05-10T04:00:13.114Z,0.97
2019-05-10T04:02:41.614Z,0.97
2019-05-10T04:05:12.312Z,0.60
2019-05-10T04:07:40.794Z,0.50
2019-05-10T04:10:11.167Z,0.63
2019-05-10T04:12:39.990Z,0.73
2019-05-10T04:15:11.302Z,0.60
2019-05-10T04:17:39.924Z,0.47
2019-05-10T04:20:10.066Z,0.70
2019-05-10T04:22:39.046Z,0.73
2019-05-10T04:25:08.325Z,0.57
2019-05-10T04:27:36.832Z,0.50
2019-05-10T04:30:06.364Z,0.90
2019-05-10T04:32:35.117Z,0.70
2019-05-10T04:35:05.117Z,0.87
2019-05-10T04:37:33.365Z,0.73
2019-05-10T04:40:01.917Z,0.93
2019-05-10T04:42:30.661Z,0.97
2019-05-10T04:44:59.156Z,0.60
2019-05-10T04:47:27.948Z,0.80
2019-05-10T04:49:56.392Z,0.97
2019-05-10T04:52:24.556Z,0.90
2019-05-10T04:54:53.000Z,0.60
2019-05-10T04:57:21.450Z,0.80
2019-05-10T04:59:50.662Z,0.87
2019-05-10T05:02:22.034Z,1.23
2019-05-10T05:04:49.694Z,0.70
2019-05-10T05:07:18.134Z,0.53
2019-05-10T05:09:47.009Z,0.63
2019-05-10T05:12:15.407Z,0.80
2019-05-10T05:14:44.185Z,0.80
2019-05-10T05:17:12.688Z,0.80
2019-05-10T05:19:41.108Z,0.90
2019-05-10T05:22:10.765Z,0.80
2019-05-10T05:24:39.239Z,1.10
2019-05-10T05:27:08.063Z,1.03
2019-05-10T05:29:37.020Z,1.23
2019-05-10T05:32:05.147Z,0.80
2019-05-10T05:34:33.876Z,0.90
2019-05-10T05:37:02.426Z,0.57
2019-05-10T05:39:30.887Z,0.67
2019-05-10T05:41:59.368Z,0.70
2019-05-10T05:44:27.881Z,1.00
2019-05-10T05:46:57.390Z,0.70
2019-05-10T05:49:25.887Z,1.00
2019-05-10T05:51:54.028Z,1.00
2019-05-10T05:54:22.775Z,0.57
2019-05-10T05:56:53.053Z,0.90
2019-05-10T05:59:23.832Z,0.80
2019-05-10T06:01:53.046Z,0.87
2019-05-10T06:04:21.887Z,0.93
2019-05-10T06:06:53.768Z,0.80
2019-05-10T06:09:19.932Z,0.70
2019-05-10T06:11:49.503Z,0.80
2019-05-10T06:14:18.032Z,1.00
2019-05-10T06:16:51.477Z,1.10
2019-05-10T06:19:20.583Z,1.00
2019-05-10T06:21:47.186Z,0.77
2019-05-10T06:24:15.989Z,0.90
2019-05-10T06:26:45.689Z,1.17
2019-05-10T06:29:17.339Z,0.73
2019-05-10T06:31:44.685Z,1.00
2019-05-10T06:34:14.724Z,0.90
2019-05-10T06:36:43.172Z,0.93
2019-05-10T06:39:12.236Z,1.03
2019-05-10T06:41:40.353Z,0.90
2019-05-10T06:44:08.849Z,0.93
2019-05-10T06:46:37.312Z,1.00
2019-05-10T06:49:08.437Z,0.90
2019-05-10T06:51:36.010Z,0.70
2019-05-10T06:54:04.522Z,0.97
2019-05-10T06:56:32.976Z,0.90
2019-05-10T06:59:13.071Z,0.70
2019-05-10T07:01:38.021Z,1.03
2019-05-10T07:04:02.845Z,1.00
2019-05-10T07:06:31.343Z,1.10
2019-05-10T07:08:59.579Z,1.37
2019-05-10T07:11:28.468Z,0.87
2019-05-10T07:13:56.927Z,0.83
2019-05-10T07:16:26.194Z,0.60
2019-05-10T07:19:00.136Z,0.70
2019-05-10T07:21:24.964Z,1.00
2019-05-10T07:23:53.432Z,0.87
2019-05-10T07:26:23.924Z,0.77
2019-05-10T07:28:57.296Z,0.77
2019-05-10T07:31:23.653Z,0.80
2019-05-10T07:33:52.470Z,0.60
2019-05-10T07:36:27.453Z,0.80
2019-05-10T07:38:50.967Z,0.80
2019-05-10T07:41:25.663Z,1.30
2019-05-10T07:43:49.557Z,1.23
2019-05-10T07:46:18.928Z,0.90
2019-05-10T07:48:52.675Z,0.80
2019-05-10T07:51:17.528Z,1.10
2019-05-10T07:53:46.008Z,1.10
2019-05-10T07:56:14.452Z,0.93
2019-05-10T07:58:44.717Z,0.90
2019-05-10T08:01:13.419Z,0.80
2019-05-10T08:03:48.289Z,1.03
2019-05-10T08:06:15.293Z,0.70
2019-05-10T08:08:42.519Z,0.87
2019-05-10T08:11:10.972Z,1.17
2019-05-10T08:13:39.527Z,1.00
2019-05-10T08:16:18.866Z,0.70
2019-05-10T08:18:42.415Z,0.77
2019-05-10T08:21:21.809Z,1.03
2019-05-10T08:23:43.898Z,1.27
2019-05-10T08:26:19.866Z,1.10
2019-05-10T08:28:44.569Z,1.03
2019-05-10T08:31:13.135Z,1.23
2019-05-10T08:33:44.222Z,0.63
2019-05-10T08:36:12.244Z,1.00
2019-05-10T08:38:46.758Z,0.50
2019-05-10T08:41:14.718Z,0.90
2019-05-10T08:43:43.082Z,0.87
2019-05-10T08:46:14.396Z,0.93
2019-05-10T08:48:50.306Z,1.03
2019-05-10T08:51:13.475Z,1.00
2019-05-10T08:53:42.347Z,0.93
2019-05-10T08:56:13.693Z,1.27
2019-05-10T08:58:56.825Z,0.73
2019-05-10T09:01:30.182Z,0.60
2019-05-10T09:04:00.871Z,1.00
2019-05-10T09:06:26.375Z,0.90
2019-05-10T09:09:01.540Z,0.70
2019-05-10T09:11:25.055Z,0.80
2019-05-10T09:13:57.526Z,0.80
2019-05-10T09:16:24.046Z,0.80
2019-05-10T09:18:54.403Z,0.73
2019-05-10T09:21:22.831Z,0.77
2019-05-10T09:24:01.213Z,0.80
2019-05-10T09:26:22.629Z,0.63
2019-05-10T09:28:55.522Z,1.00
2019-05-10T09:31:25.547Z,0.67
2019-05-10T09:33:54.318Z,0.90
2019-05-10T09:36:30.510Z,1.07
2019-05-10T09:38:52.904Z,0.73
2019-05-10T09:41:22.726Z,1.13
2019-05-10T09:43:53.562Z,0.60
2019-05-10T09:46:22.894Z,0.90
2019-05-10T09:48:54.548Z,0.80
2019-05-10T09:51:27.966Z,0.80
2019-05-10T09:53:52.401Z,0.67
2019-05-10T09:56:21.133Z,0.73
2019-05-10T09:58:49.278Z,0.60
2019-05-10T10:01:21.220Z,0.63
2019-05-10T10:03:47.824Z,0.80
2019-05-10T10:06:17.847Z,0.80
2019-05-10T10:08:51.126Z,0.70
2019-05-10T10:11:18.697Z,0.90
2019-05-10T10:13:50.156Z,0.77
2019-05-10T10:16:19.007Z,0.50
2019-05-10T10:18:47.778Z,0.60
2019-05-10T10:21:18.865Z,0.80
2019-05-10T10:23:47.463Z,0.80
2019-05-10T10:26:18.633Z,0.97
2019-05-10T10:28:49.724Z,0.80
2019-05-10T10:31:27.027Z,0.90
2019-05-10T10:33:57.462Z,0.60
2019-05-10T10:36:17.605Z,1.00
2019-05-10T10:38:49.554Z,0.90
2019-05-10T10:41:25.625Z,1.03
2019-05-10T10:43:48.456Z,0.90
2019-05-10T10:46:19.715Z,0.70
2019-05-10T10:48:49.193Z,0.73
2019-05-10T10:51:18.277Z,0.93
2019-05-10T10:53:47.172Z,0.70
2019-05-10T10:56:17.639Z,0.70
2019-05-10T10:58:49.702Z,0.90
2019-05-10T11:01:24.662Z,0.60
2019-05-10T11:03:48.840Z,0.67
2019-05-10T11:06:16.731Z,0.70
2019-05-10T11:08:45.175Z,0.93
2019-05-10T11:11:13.648Z,0.50
2019-05-10T11:13:45.940Z,0.73
2019-05-10T11:16:15.599Z,0.73
2019-05-10T11:18:42.727Z,0.80
2019-05-10T11:21:11.340Z,0.90
2019-05-10T11:23:41.926Z,0.70
2019-05-10T11:26:11.011Z,0.70
2019-05-10T11:28:44.140Z,0.77
2019-05-10T11:31:11.340Z,0.73
2019-05-10T11:33:41.531Z,1.17
2019-05-10T11:36:11.391Z,0.70
2019-05-10T11:38:41.982Z,0.80
2019-05-10T11:41:13.027Z,0.77
2019-05-10T11:43:41.917Z,1.27
2019-05-10T11:46:11.726Z,0.90
2019-05-10T11:48:42.203Z,0.80
2019-05-10T11:51:17.176Z,0.80
2019-05-10T11:53:41.676Z,1.20
2019-05-10T11:56:14.040Z,0.70
2019-05-10T11:58:45.938Z,0.80
2019-05-10T12:01:17.650Z,0.83
2019-05-10T12:03:42.415Z,0.83
2019-05-10T12:08:41.752Z,0.80
2019-05-10T12:11:27.266Z,0.80
2019-05-10T12:13:40.989Z,1.20
2019-05-10T12:16:15.996Z,0.90
2019-05-10T12:18:46.317Z,0.90
2019-05-10T12:21:11.286Z,0.80
2019-05-10T12:23:49.894Z,1.00
2019-05-10T12:26:06.271Z,0.60
2019-05-10T12:28:41.087Z,1.00
2019-05-10T12:31:15.088Z,0.70
2019-05-10T12:33:45.102Z,0.80
2019-05-10T12:36:22.259Z,0.97
2019-05-10T12:38:41.545Z,0.83
2019-05-10T12:41:09.982Z,1.23
2019-05-10T12:43:43.234Z,0.70
2019-05-10T12:46:10.464Z,0.83
2019-05-10T12:48:39.531Z,0.90
2019-05-10T12:51:11.694Z,1.00
2019-05-10T12:53:44.431Z,0.70
2019-05-10T12:56:08.011Z,1.13
2019-05-10T12:58:36.752Z,0.63
2019-05-10T13:01:05.153Z,0.80
2019-05-10T13:03:33.918Z,0.77
2019-05-10T13:06:02.608Z,0.70
2019-05-10T13:08:31.671Z,1.00
2019-05-10T13:11:00.384Z,1.00
2019-05-10T13:13:29.966Z,0.80
2019-05-10T13:16:03.725Z,0.80
2019-05-10T13:21:00.488Z,1.03
2019-05-10T13:23:28.944Z,0.90
2019-05-10T13:25:58.008Z,1.00
2019-05-10T13:28:26.155Z,0.90
2019-05-10T13:30:59.649Z,0.90
2019-05-10T13:33:29.236Z,1.10
2019-05-10T13:35:58.317Z,0.60
2019-05-10T13:38:26.956Z,0.93
2019-05-10T13:40:55.671Z,1.00
2019-05-10T13:43:27.125Z,0.97
2019-05-10T13:45:55.080Z,0.97
2019-05-10T13:48:26.376Z,0.70
2019-05-10T13:50:53.989Z,1.30
2019-05-10T13:53:23.239Z,0.70
2019-05-10T13:55:52.468Z,0.70
2019-05-10T13:58:21.273Z,1.17
2019-05-10T14:00:50.085Z,0.73
2019-05-10T14:03:18.563Z,0.90
2019-05-10T14:05:47.337Z,0.70
2019-05-10T14:08:15.523Z,0.70
2019-05-10T14:10:44.001Z,1.07
2019-05-10T14:13:16.486Z,0.80
2019-05-10T14:15:43.194Z,1.00
2019-05-10T14:18:11.337Z,0.90
2019-05-10T14:20:39.787Z,1.17
2019-05-10T14:23:08.469Z,0.97
2019-05-10T14:25:39.004Z,2.00
2019-05-10T14:28:09.806Z,0.67
2019-05-10T14:30:37.297Z,0.80
2019-05-10T14:33:08.714Z,1.00
2019-05-10T14:35:36.444Z,0.80
2019-05-10T14:38:08.261Z,1.10
2019-05-10T14:40:35.984Z,0.97
2019-05-10T14:43:05.284Z,1.20
2019-05-10T14:45:33.512Z,1.17
2019-05-10T14:48:02.248Z,1.40
2019-05-10T14:50:30.408Z,0.97
2019-05-10T14:52:58.852Z,1.63
2019-05-10T14:55:27.986Z,0.87
2019-05-10T14:57:57.497Z,2.23
2019-05-10T15:00:26.363Z,1.07
2019-05-10T15:02:56.640Z,0.60
2019-05-10T15:05:25.003Z,0.97
2019-05-10T15:07:53.777Z,1.63
2019-05-10T15:10:22.252Z,1.17
2019-05-10T15:12:51.280Z,0.67
2019-05-10T15:15:20.149Z,1.10
2019-05-10T15:17:54.816Z,2.20
2019-05-10T15:20:20.676Z,1.00
2019-05-10T15:22:49.468Z,0.63
2019-05-10T15:25:17.592Z,0.90
2019-05-10T15:27:46.042Z,0.97
2019-05-10T15:30:15.052Z,0.97
2019-05-10T15:32:43.504Z,0.90
2019-05-10T15:35:11.980Z,0.73
2019-05-10T15:37:46.028Z,0.90
2019-05-10T15:40:11.396Z,1.80
2019-05-10T15:42:39.840Z,1.20
2019-05-10T15:45:11.998Z,1.00
2019-05-10T15:47:50.476Z,1.30
2019-05-10T15:50:09.312Z,1.30
2019-05-10T15:52:39.822Z,1.00
2019-05-10T15:55:09.115Z,0.90
2019-05-10T15:57:37.576Z,0.90
2019-05-10T16:00:07.366Z,0.97
2019-05-10T16:02:35.895Z,1.37
2019-05-10T16:05:23.495Z,1.33
2019-05-10T16:07:37.962Z,0.80
2019-05-10T16:10:07.543Z,0.87
2019-05-10T16:12:37.745Z,1.20
2019-05-10T16:15:07.233Z,1.00
2019-05-10T16:17:35.672Z,1.07
2019-05-10T16:20:06.293Z,1.17
2019-05-10T16:22:35.452Z,1.27
2019-05-10T16:25:05.444Z,1.20
2019-05-10T16:27:39.168Z,1.07
2019-05-10T16:30:11.854Z,0.90
2019-05-10T16:32:38.866Z,1.10
2019-05-10T16:35:12.550Z,1.43
2019-05-10T16:37:38.611Z,1.27
2019-05-10T16:40:08.492Z,0.70
2019-05-10T16:42:36.980Z,1.10
2019-05-10T16:45:06.563Z,1.20
2019-05-10T16:47:35.008Z,0.80
2019-05-10T16:50:05.705Z,1.00
2019-05-10T16:52:34.324Z,0.90
2019-05-10T16:55:05.262Z,1.10
2019-05-10T16:57:37.515Z,1.00
2019-05-10T17:00:08.434Z,0.80
2019-05-10T17:02:41.936Z,1.30
2019-05-10T17:05:14.470Z,0.70
2019-05-10T17:07:39.616Z,0.90
2019-05-10T17:10:08.924Z,0.77
2019-05-10T17:12:37.688Z,1.23
2019-05-10T17:15:07.876Z,0.97
2019-05-10T17:17:37.151Z,1.23
2019-05-10T17:20:13.853Z,0.90
2019-05-10T17:22:38.676Z,1.13
2019-05-10T17:25:08.999Z,1.00
2019-05-10T17:27:37.440Z,1.00
2019-05-10T17:30:07.392Z,1.07
2019-05-10T17:32:35.864Z,0.90
2019-05-10T17:35:07.208Z,1.70
2019-05-10T17:37:37.498Z,1.20
2019-05-10T17:40:12.326Z,1.27
2019-05-10T17:42:43.218Z,1.23
2019-05-10T17:45:12.608Z,0.83
2019-05-10T17:47:41.004Z,0.97
2019-05-10T17:50:10.220Z,0.90
2019-05-10T17:52:38.672Z,1.40
2019-05-10T17:55:10.767Z,1.00
2019-05-10T17:57:38.603Z,1.23
2019-05-10T18:00:09.557Z,1.20
2019-05-10T18:02:37.672Z,1.30
2019-05-10T18:05:08.283Z,1.50
2019-05-10T18:07:37.012Z,1.07
2019-05-10T18:10:07.332Z,1.00
2019-05-10T18:12:35.856Z,0.90
2019-05-10T18:15:07.788Z,0.90
2019-05-10T18:17:36.272Z,1.07
2019-05-10T18:20:06.352Z,0.90
2019-05-10T18:22:42.882Z,1.00
2019-05-10T18:25:07.419Z,1.10
2019-05-10T18:27:39.301Z,1.27
2019-05-10T18:30:08.422Z,1.00
2019-05-10T18:32:37.167Z,1.50
2019-05-10T18:35:14.592Z,1.00
2019-05-10T18:37:39.469Z,1.47
2019-05-10T18:40:08.384Z,1.10
2019-05-10T18:42:36.828Z,1.57
2019-05-10T18:45:06.874Z,1.30
2019-05-10T18:47:35.348Z,0.90
2019-05-10T18:50:07.323Z,1.23
2019-05-10T18:52:35.800Z,1.00
2019-05-10T18:55:05.407Z,1.20
2019-05-10T18:57:34.171Z,1.13
2019-05-10T19:00:02.795Z,1.27
2019-05-10T19:02:31.712Z,1.33
2019-05-10T19:05:00.540Z,1.33
2019-05-10T19:07:29.328Z,1.00
2019-05-10T19:09:57.780Z,1.40
2019-05-10T19:12:26.484Z,1.50
2019-05-10T19:14:55.480Z,1.27
2019-05-10T19:17:23.650Z,1.83
2019-05-10T19:19:52.349Z,1.53
2019-05-10T19:22:20.492Z,1.60
2019-05-10T19:24:48.896Z,1.83
2019-05-10T19:27:17.345Z,2.03
2019-05-10T19:29:47.849Z,1.70
2019-05-10T19:32:18.248Z,1.43
2019-05-10T19:34:53.419Z,2.03
2019-05-10T19:37:29.660Z,1.23
2019-05-10T19:39:46.392Z,2.63
2019-05-10T19:42:14.917Z,1.90
2019-05-10T19:44:43.691Z,1.37
2019-05-10T19:47:17.799Z,1.70
2019-05-10T19:49:45.769Z,1.57
2019-05-10T19:52:12.900Z,1.10
2019-05-10T19:54:41.609Z,1.40
2019-05-10T19:57:16.397Z,1.47
2019-05-10T19:59:44.005Z,1.47
2019-05-10T20:02:11.212Z,1.70
2019-05-10T20:04:39.687Z,1.83
2019-05-10T20:07:08.555Z,1.53
2019-05-10T20:09:37.300Z,1.30
2019-05-10T20:12:05.782Z,1.50
2019-05-10T20:14:34.224Z,1.30
2019-05-10T20:17:03.325Z,2.37
2019-05-10T20:19:31.776Z,2.13
2019-05-10T20:22:00.520Z,2.17
2019-05-10T20:24:29.051Z,1.70
2019-05-10T20:26:57.793Z,2.03
2019-05-10T20:29:26.582Z,2.00
2019-05-10T20:31:54.695Z,1.50
2019-05-10T20:34:24.415Z,2.30
2019-05-10T20:36:53.243Z,1.80
2019-05-10T20:39:21.390Z,2.20
2019-05-10T20:41:49.500Z,2.10
2019-05-10T20:44:18.442Z,2.20
2019-05-10T20:46:47.711Z,2.03
2019-05-10T20:49:15.900Z,2.07
2019-05-10T20:51:44.376Z,1.90
2019-05-10T20:54:12.832Z,3.40
2019-05-10T20:56:41.376Z,1.73
2019-05-10T20:59:10.186Z,2.47
2019-05-10T21:01:38.979Z,2.30
2019-05-10T21:04:07.139Z,1.57
2019-05-10T21:06:35.584Z,2.23
2019-05-10T21:09:06.439Z,2.10
2019-05-10T21:11:34.888Z,1.93
2019-05-10T21:14:03.068Z,1.50
2019-05-10T21:16:31.616Z,1.60
2019-05-10T21:18:59.723Z,1.90
2019-05-10T21:21:28.201Z,2.17
2019-05-10T21:23:56.953Z,2.17
2019-05-10T21:26:25.457Z,2.20
2019-05-10T21:28:53.900Z,1.60
2019-05-10T21:31:22.500Z,2.13
2019-05-10T21:33:50.985Z,1.77
2019-05-10T21:36:19.516Z,2.00
2019-05-10T21:38:48.224Z,1.53
2019-05-10T21:41:17.052Z,1.63
2019-05-10T21:43:45.611Z,1.60
2019-05-10T21:46:13.749Z,2.00
2019-05-10T21:48:42.197Z,1.90
2019-05-10T21:51:10.739Z,1.60
2019-05-10T21:53:39.250Z,2.57
2019-05-10T21:56:07.696Z,1.30
2019-05-10T21:58:36.180Z,2.10
2019-05-10T22:01:04.351Z,2.23
2019-05-10T22:03:33.170Z,2.07
2019-05-10T22:06:01.955Z,2.03
2019-05-10T22:08:31.283Z,1.90
2019-05-10T22:11:01.084Z,2.10
2019-05-10T22:13:29.631Z,1.90
2019-05-10T22:15:58.440Z,3.03
2019-05-10T22:18:27.327Z,2.30
2019-05-10T22:20:55.507Z,2.30
2019-05-10T22:23:23.991Z,1.77
2019-05-10T22:25:52.504Z,2.47
2019-05-10T22:28:20.979Z,2.10
2019-05-10T22:30:49.503Z,2.37
2019-05-10T22:33:17.985Z,2.20
2019-05-10T22:35:46.547Z,1.90
2019-05-10T22:38:15.463Z,1.57
2019-05-10T22:40:43.974Z,1.87
2019-05-10T22:43:12.848Z,2.00
2019-05-10T22:45:41.702Z,3.10
2019-05-10T22:48:10.523Z,2.00
2019-05-10T22:50:39.330Z,2.10
2019-05-10T22:53:07.844Z,2.57
2019-05-10T22:55:36.379Z,2.40
2019-05-10T22:58:05.703Z,2.10
2019-05-10T23:00:35.624Z,2.33
2019-05-10T23:03:04.580Z,2.03
2019-05-10T23:05:33.096Z,2.17
2019-05-10T23:08:01.579Z,2.30
2019-05-10T23:10:30.431Z,1.97
2019-05-10T23:12:58.915Z,1.93
2019-05-10T23:15:27.439Z,2.00
2019-05-10T23:17:56.828Z,3.20
2019-05-10T23:20:25.415Z,2.07
2019-05-10T23:22:53.899Z,2.10
2019-05-10T23:25:22.385Z,2.50
2019-05-10T23:27:51.671Z,2.93
2019-05-10T23:30:20.159Z,2.47
2019-05-10T23:32:48.347Z,1.77
2019-05-10T23:35:16.836Z,2.23
2019-05-10T23:37:45.335Z,2.77
2019-05-10T23:40:14.397Z,2.10
2019-05-10T23:42:42.939Z,2.40
2019-05-10T23:45:13.036Z,2.07
2019-05-10T23:47:41.262Z,2.57
2019-05-10T23:50:10.775Z,2.37
2019-05-10T23:52:39.292Z,2.13
2019-05-10T23:55:07.843Z,1.80
2019-05-10T23:57:36.359Z,2.27
